Banning, CA (92220)

3:53 PM PDT on October 01, 2016 (GMT -0700)
north ban | | Change Station

Elev 2503 ft 33.94 °N, 116.88 °W | Updated 18 seconds ago

Clear
Clear
86.7 °F
Feels Like 84 °F
N
3.2
Wind Variable Wind from West

Today
High -- | Low -- °F
--% Chance of Precip.
Yesterday
High -- | Low -- °F
Precip. -- in
Pressure 29.91 in
Visibility 10.0 miles
Clouds Clear
Heat Index 84 °F
Dew Point 48 °F
Humidity 26%
Rainfall 0.00 in
Snow Depth Not available.
6:42 AM 6:30 PM
New Moon, 1% visible
METAR KRIV 012158Z AUTO 29008KT 10SM CLR 31/10 A2994 RMK AO2 SLP126 T03120095
Pressure 29.91 in
Visibility 10.0 miles
Clouds Clear
Heat Index 84 °F
Dew Point 48 °F
Humidity 26%
Rainfall 0.00 in
Snow Depth Not available.
6:42 AM 6:30 PM
New Moon, 1% visible
METAR KRIV 012158Z AUTO 29008KT 10SM CLR 31/10 A2994 RMK AO2 SLP126 T03120095

10-Day Weather Forecast

Almanac

Astronomy

Oct. 01, 2016 Rise Set
Actual Time
Civil Twilight
Nautical Twilight
Astronomical Twilight
Moon
Length of Visible Light
Length of Day
Tomorrow will be .
, % of the Moon is Illuminated

Today's Extremes

State Highs State Lows

Community

WunderPhotos

Upload Photos

1,943,045 photos uploaded!

WunderBlog® & News

Nearby

Air Quality

  Air Quality AQ Index Pollutant
Not available.

Snow Depth

Station Depth Elevation

Earthquake Activity

City Distance Mag. Time & Date
Minimum magnitude displayed is 2.5.

Coastal Water Temperatures

Place Temperature

Stations

Nearby Weather Stations

Station Location Temp. Windchill Dew Point Humidity Wind Precip. Elev Updated Type
                   

Watches & Warnings

There are currently no watches in effect.